createdAt,value
2017-04-25T00:00:22.213Z,0
2017-04-25T00:01:22.738Z,0
2017-04-25T00:02:23.260Z,0
2017-04-25T00:03:23.626Z,0
2017-04-25T00:04:24.293Z,0
2017-04-25T00:05:24.658Z,0
2017-04-25T00:06:25.173Z,0
2017-04-25T00:07:25.696Z,0
2017-04-25T00:09:26.740Z,0
2017-04-25T00:10:30.402Z,0
2017-04-25T00:11:27.774Z,0
2017-04-25T00:12:28.286Z,0
2017-04-25T00:13:28.807Z,0
2017-04-25T00:14:29.477Z,0
2017-04-25T00:15:29.850Z,0
2017-04-25T00:17:30.923Z,0
2017-04-25T00:18:31.400Z,0
2017-04-25T00:19:32.082Z,0
2017-04-25T00:20:32.449Z,0
2017-04-25T00:21:32.956Z,0
2017-04-25T00:22:33.474Z,0
2017-04-25T00:23:34.000Z,0
2017-04-25T00:24:34.533Z,0
2017-04-25T00:25:35.061Z,0
2017-04-25T00:26:35.556Z,0
2017-04-25T00:27:36.076Z,0
2017-04-25T00:28:36.585Z,0
2017-04-25T00:29:37.246Z,0
2017-04-25T00:30:37.774Z,0
2017-04-25T00:31:38.153Z,0
2017-04-25T00:32:38.672Z,0
2017-04-25T00:33:39.357Z,0
2017-04-25T00:34:39.861Z,0
2017-04-25T00:35:40.528Z,0
2017-04-25T00:36:40.766Z,0
2017-04-25T00:37:41.271Z,0
2017-04-25T00:38:41.937Z,0
2017-04-25T00:39:42.316Z,0
2017-04-25T00:40:42.825Z,0
2017-04-25T00:41:43.494Z,0
2017-04-25T00:42:46.864Z,0
2017-04-25T00:43:44.531Z,0
2017-04-25T00:44:44.911Z,0
2017-04-25T00:45:45.567Z,0
2017-04-25T00:46:46.081Z,0
2017-04-25T00:47:46.609Z,0
2017-04-25T00:48:47.123Z,0
2017-04-25T00:49:47.512Z,0
2017-04-25T00:50:48.031Z,0
2017-04-25T00:51:51.684Z,0
2017-04-25T00:52:49.199Z,0
2017-04-25T00:53:49.575Z,0
2017-04-25T00:54:50.085Z,0
2017-04-25T00:55:50.605Z,0
2017-04-25T00:56:51.134Z,0
2017-04-25T00:57:51.800Z,0
2017-04-25T00:58:52.307Z,0
2017-04-25T00:59:55.830Z,0
2017-04-25T01:00:53.352Z,0
2017-04-25T01:01:53.733Z,0
2017-04-25T01:02:57.235Z,0
2017-04-25T01:03:54.751Z,0
2017-04-25T01:04:55.288Z,0
2017-04-25T01:05:55.939Z,0
2017-04-25T01:06:59.264Z,0
2017-04-25T01:07:56.828Z,0
2017-04-25T01:08:57.345Z,0
2017-04-25T01:09:57.860Z,0
2017-04-25T01:10:58.538Z,0
2017-04-25T01:11:58.898Z,0
2017-04-25T01:13:02.426Z,0
2017-04-25T01:13:59.949Z,0
2017-04-25T01:15:00.473Z,0
2017-04-25T01:16:00.994Z,0
2017-04-25T01:17:01.533Z,0
2017-04-25T01:18:02.028Z,0
2017-04-25T01:19:02.688Z,0
2017-04-25T01:20:03.209Z,0
2017-04-25T01:21:03.589Z,0
2017-04-25T01:22:04.245Z,0
2017-04-25T01:23:04.768Z,0
2017-04-25T01:24:05.285Z,0
2017-04-25T01:25:05.801Z,0
2017-04-25T01:26:06.188Z,0
2017-04-25T01:27:06.747Z,0
2017-04-25T01:28:07.210Z,0
2017-04-25T01:29:07.747Z,0
2017-04-25T01:30:08.249Z,0
2017-04-25T01:31:08.919Z,0
2017-04-25T01:32:09.439Z,0
2017-04-25T01:33:12.810Z,0
2017-04-25T01:34:10.478Z,0
2017-04-25T01:35:10.886Z,0
2017-04-25T01:36:11.362Z,0
2017-04-25T01:37:11.890Z,0
2017-04-25T01:38:12.563Z,0
2017-04-25T01:39:12.938Z,0
2017-04-25T01:40:13.594Z,0
2017-04-25T01:41:14.103Z,0
2017-04-25T01:42:14.480Z,0
2017-04-25T01:43:15.003Z,0
2017-04-25T01:44:15.513Z,0
2017-04-25T01:45:16.032Z,0
2017-04-25T01:46:16.699Z,0
2017-04-25T01:47:17.216Z,0
2017-04-25T01:48:17.590Z,0
2017-04-25T01:49:18.260Z,0
2017-04-25T01:50:21.686Z,0
2017-04-25T01:52:19.819Z,0
2017-04-25T01:53:23.150Z,0
2017-04-25T01:54:20.714Z,0
2017-04-25T01:55:21.234Z,0
2017-04-25T01:56:21.922Z,0
2017-04-25T01:57:22.411Z,0
2017-04-25T01:58:22.795Z,0
2017-04-25T01:59:23.355Z,0
2017-04-25T02:00:23.969Z,0
2017-04-25T02:02:24.870Z,0
2017-04-25T02:03:25.525Z,0
2017-04-25T02:04:26.054Z,0
2017-04-25T02:05:26.428Z,0
2017-04-25T02:06:27.101Z,0
2017-04-25T02:07:30.506Z,0
2017-04-25T02:08:27.990Z,0
2017-04-25T02:09:28.643Z,0
2017-04-25T02:10:29.159Z,0
2017-04-25T02:11:29.539Z,0
2017-04-25T02:12:30.353Z,0
2017-04-25T02:13:30.588Z,0
2017-04-25T02:14:35.493Z,0
2017-04-25T02:15:31.629Z,0
2017-04-25T02:16:32.281Z,0
2017-04-25T02:17:32.654Z,0
2017-04-25T02:18:36.159Z,0
2017-04-25T02:19:36.686Z,0
2017-04-25T02:20:34.199Z,0
2017-04-25T02:21:37.663Z,0
2017-04-25T02:22:35.251Z,0
2017-04-25T02:23:35.774Z,0
2017-04-25T02:24:36.295Z,0
2017-04-25T02:25:36.830Z,0
2017-04-25T02:26:37.464Z,0
2017-04-25T02:27:37.850Z,0
2017-04-25T02:28:38.498Z,0
2017-04-25T02:29:41.882Z,0
2017-04-25T02:30:43.146Z,0
2017-04-25T02:31:40.055Z,0
2017-04-25T02:32:40.430Z,0
2017-04-25T02:33:44.018Z,0
2017-04-25T02:34:41.480Z,0
2017-04-25T02:35:41.993Z,0
2017-04-25T02:36:42.508Z,0
2017-04-25T02:37:43.175Z,0
2017-04-25T02:38:43.695Z,0
2017-04-25T02:39:44.094Z,0
2017-04-25T02:40:44.600Z,0
2017-04-25T02:41:48.037Z,0
2017-04-25T02:42:45.624Z,0
2017-04-25T02:43:46.157Z,0
2017-04-25T02:44:46.675Z,0
2017-04-25T02:45:47.183Z,0
2017-04-25T02:46:47.739Z,0
2017-04-25T02:47:48.363Z,0
2017-04-25T02:48:48.744Z,0
2017-04-25T02:49:52.254Z,0
2017-04-25T02:50:49.781Z,0
2017-04-25T02:52:51.013Z,0
2017-04-25T02:53:51.341Z,0
2017-04-25T02:54:51.861Z,0
2017-04-25T02:55:52.369Z,0
2017-04-25T02:56:52.898Z,0
2017-04-25T02:57:53.427Z,0
2017-04-25T02:58:53.930Z,0
2017-04-25T02:59:57.594Z,0
2017-04-25T03:00:55.113Z,0
2017-04-25T03:01:55.626Z,0
2017-04-25T03:02:56.202Z,0
2017-04-25T03:03:56.540Z,0
2017-04-25T03:04:57.055Z,0
2017-04-25T03:05:57.705Z,0
2017-04-25T03:06:58.079Z,0
2017-04-25T03:07:58.594Z,0
2017-04-25T03:08:59.129Z,0
2017-04-25T03:09:59.774Z,0
2017-04-25T03:11:00.160Z,0
2017-04-25T03:12:00.689Z,0
2017-04-25T03:13:01.194Z,0
2017-04-25T03:14:01.852Z,0
2017-04-25T03:15:02.388Z,0
2017-04-25T03:16:02.900Z,0
2017-04-25T03:17:03.288Z,0
2017-04-25T03:18:03.962Z,0
2017-04-25T03:19:04.473Z,0
2017-04-25T03:20:04.875Z,0
2017-04-25T03:22:06.024Z,0
2017-04-25T03:23:06.545Z,0
2017-04-25T03:24:06.913Z,0
2017-04-25T03:25:07.581Z,0
2017-04-25T03:26:07.947Z,0
2017-04-25T03:27:08.615Z,0
2017-04-25T03:28:08.995Z,0
2017-04-25T03:29:09.516Z,0
2017-04-25T03:30:10.022Z,0
2017-04-25T03:31:10.692Z,0
2017-04-25T03:32:11.206Z,0
2017-04-25T03:33:11.618Z,0
2017-04-25T03:34:12.102Z,0
2017-04-25T03:35:12.632Z,0
2017-04-25T03:36:13.148Z,0
2017-04-25T03:37:13.801Z,0
2017-04-25T03:38:14.313Z,0
2017-04-25T03:39:14.839Z,0
2017-04-25T03:40:18.207Z,0
2017-04-25T03:41:15.733Z,4
2017-04-25T03:42:16.390Z,4
2017-04-25T03:44:17.280Z,4
2017-04-25T03:45:20.681Z,4
2017-04-25T03:46:18.323Z,4
2017-04-25T03:47:18.987Z,4
2017-04-25T03:49:20.025Z,8
2017-04-25T03:50:20.407Z,12
2017-04-25T03:51:23.914Z,16
2017-04-25T03:53:22.091Z,24
2017-04-25T03:54:22.469Z,28
2017-04-25T03:55:25.977Z,36
2017-04-25T03:56:23.505Z,44
2017-04-25T03:57:24.014Z,44
2017-04-25T03:58:24.548Z,44
2017-04-25T03:59:25.209Z,44
2017-04-25T04:00:25.730Z,48
2017-04-25T04:01:26.100Z,52
2017-04-25T04:02:26.633Z,52
2017-04-25T04:03:27.294Z,56
2017-04-25T04:04:27.674Z,56
2017-04-25T04:05:28.201Z,64
2017-04-25T04:06:28.849Z,76
2017-04-25T04:07:29.227Z,80
2017-04-25T04:08:29.745Z,84
2017-04-25T04:09:30.268Z,96
2017-04-25T04:10:30.929Z,104
2017-04-25T04:11:34.302Z,112
2017-04-25T04:12:31.825Z,124
2017-04-25T04:13:35.330Z,136
2017-04-25T04:14:33.002Z,156
2017-04-25T04:15:33.367Z,180
2017-04-25T04:16:34.038Z,204
2017-04-25T04:17:34.562Z,220
2017-04-25T04:18:35.081Z,248
2017-04-25T04:19:35.455Z,296
2017-04-25T04:20:35.966Z,328
2017-04-25T04:21:39.477Z,368
2017-04-25T04:22:37.003Z,384
2017-04-25T04:23:37.669Z,428
2017-04-25T04:24:38.182Z,440
2017-04-25T04:25:38.707Z,452
2017-04-25T04:26:39.234Z,488
2017-04-25T04:27:39.589Z,500
2017-04-25T04:28:40.130Z,512
2017-04-25T04:29:40.643Z,556
2017-04-25T04:30:41.170Z,644
2017-04-25T04:31:41.676Z,684
2017-04-25T04:32:42.188Z,804
2017-04-25T04:33:42.707Z,932
2017-04-25T04:34:43.225Z,1036
2017-04-25T04:35:43.889Z,1116
2017-04-25T04:36:44.268Z,1200
2017-04-25T04:37:44.792Z,1240
2017-04-25T04:38:45.299Z,1316
2017-04-25T04:39:45.841Z,1340
2017-04-25T04:40:46.482Z,1352
2017-04-25T04:41:47.004Z,1416
2017-04-25T04:42:47.389Z,1464
2017-04-25T04:43:47.909Z,1492
2017-04-25T04:44:48.430Z,1540
2017-04-25T04:45:48.936Z,1604
2017-04-25T04:46:49.602Z,1680
2017-04-25T04:47:49.977Z,1816
2017-04-25T04:48:50.495Z,1904
2017-04-25T04:49:54.019Z,1984
2017-04-25T04:50:51.541Z,2024
2017-04-25T04:51:55.048Z,1948
2017-04-25T04:52:52.566Z,1936
2017-04-25T04:53:53.233Z,1948
2017-04-25T04:54:56.712Z,1976
2017-04-25T04:55:54.265Z,2052
2017-04-25T04:56:54.785Z,1992
2017-04-25T04:57:55.194Z,2028
2017-04-25T04:58:55.682Z,2208
2017-04-25T04:59:56.349Z,2428
2017-04-25T05:00:56.757Z,2540
2017-04-25T05:01:57.234Z,2624
2017-04-25T05:02:57.764Z,2848
2017-04-25T05:04:01.265Z,2996
2017-04-25T05:04:58.791Z,3208
2017-04-25T05:05:59.305Z,3576
2017-04-25T05:06:59.823Z,3728
2017-04-25T05:08:00.343Z,3648
2017-04-25T05:09:00.872Z,3716
2017-04-25T05:10:01.375Z,3820
2017-04-25T05:11:01.911Z,3812
2017-04-25T05:12:02.568Z,3868
2017-04-25T05:13:02.947Z,3828
2017-04-25T05:14:03.466Z,3692
2017-04-25T05:15:03.983Z,3572
2017-04-25T05:16:04.499Z,3648
2017-04-25T05:17:05.154Z,3928
2017-04-25T05:18:05.676Z,4220
2017-04-25T05:19:06.191Z,4324
2017-04-25T05:20:06.575Z,4272
2017-04-25T05:21:07.091Z,4328
2017-04-25T05:22:07.628Z,4492
2017-04-25T05:23:08.131Z,4356
2017-04-25T05:24:08.694Z,4184
2017-04-25T05:25:09.305Z,4044
2017-04-25T05:26:09.831Z,4120
2017-04-25T05:27:10.216Z,4188
2017-04-25T05:28:10.730Z,4444
2017-04-25T05:29:11.387Z,4908
2017-04-25T05:30:11.798Z,5400
2017-04-25T05:31:12.420Z,6028
2017-04-25T05:32:12.812Z,6436
2017-04-25T05:33:13.329Z,6488
2017-04-25T05:34:13.844Z,6016
2017-04-25T05:35:14.347Z,5528
2017-04-25T05:36:14.879Z,5244
2017-04-25T05:37:15.533Z,4968
2017-04-25T05:38:16.053Z,4912
2017-04-25T05:39:16.714Z,5156
2017-04-25T05:40:17.087Z,5640
2017-04-25T05:41:17.601Z,6224
2017-04-25T05:42:17.973Z,6576
2017-04-25T05:43:18.505Z,6792
2017-04-25T05:44:19.032Z,6868
2017-04-25T05:45:19.682Z,6640
2017-04-25T05:46:20.195Z,6380
2017-04-25T05:47:20.563Z,6504
2017-04-25T05:48:21.105Z,6832
2017-04-25T05:49:21.609Z,7312
2017-04-25T05:50:22.270Z,7956
2017-04-25T05:51:22.644Z,8500
2017-04-25T05:52:23.174Z,8516
2017-04-25T05:53:23.694Z,8200
2017-04-25T05:54:24.205Z,8232
2017-04-25T05:55:24.861Z,8668
2017-04-25T05:56:25.239Z,9784
2017-04-25T05:57:25.768Z,11060
2017-04-25T05:58:26.304Z,11700
2017-04-25T05:59:26.790Z,12180
2017-04-25T06:00:27.324Z,13144
2017-04-25T06:01:27.848Z,13972
2017-04-25T06:02:28.358Z,14184
2017-04-25T06:03:28.874Z,14428
2017-04-25T06:04:29.401Z,14852
2017-04-25T06:05:30.071Z,14532
2017-04-25T06:06:30.585Z,13952
2017-04-25T06:07:30.959Z,13336
2017-04-25T06:08:31.483Z,12776
2017-04-25T06:09:31.990Z,12364
2017-04-25T06:10:32.655Z,11392
2017-04-25T06:11:33.048Z,10608
2017-04-25T06:12:33.556Z,11600
2017-04-25T06:13:34.109Z,13244
2017-04-25T06:14:34.729Z,15692
2017-04-25T06:15:35.127Z,18376
2017-04-25T06:16:35.637Z,19700
2017-04-25T06:17:36.291Z,19188
2017-04-25T06:18:36.810Z,17332
2017-04-25T06:19:37.178Z,15148
2017-04-25T06:20:37.698Z,14240
2017-04-25T06:21:38.215Z,14660
2017-04-25T06:22:38.785Z,15012
2017-04-25T06:23:39.399Z,14668
2017-04-25T06:24:39.827Z,15256
2017-04-25T06:25:40.290Z,15756
2017-04-25T06:26:40.800Z,16092
2017-04-25T06:27:41.468Z,17400
2017-04-25T06:28:41.842Z,19568
2017-04-25T06:29:42.358Z,21184
2017-04-25T06:30:43.021Z,21248
2017-04-25T06:31:43.691Z,21152
2017-04-25T06:32:44.058Z,20640
2017-04-25T06:33:44.435Z,19364
2017-04-25T06:34:44.951Z,18692
2017-04-25T06:35:45.463Z,15740
2017-04-25T06:36:46.134Z,13132
2017-04-25T06:37:46.648Z,11512
2017-04-25T06:38:47.046Z,10272
2017-04-25T06:39:47.557Z,10144
2017-04-25T06:40:48.070Z,10340
2017-04-25T06:42:49.110Z,11156
2017-04-25T06:43:49.618Z,11744
2017-04-25T06:44:50.144Z,11228
2017-04-25T06:45:50.819Z,10808
2017-04-25T06:46:51.223Z,10532
2017-04-25T06:47:51.856Z,10584
2017-04-25T06:48:52.244Z,10136
2017-04-25T06:49:52.755Z,9012
2017-04-25T06:50:53.409Z,9632
2017-04-25T06:51:53.784Z,10584
2017-04-25T06:52:54.301Z,12048
2017-04-25T06:53:54.822Z,12400
2017-04-25T06:54:55.338Z,12416
2017-04-25T06:55:55.873Z,12456
2017-04-25T06:56:56.381Z,13124
2017-04-25T06:57:56.905Z,14440
2017-04-25T06:58:57.558Z,16288
2017-04-25T06:59:57.940Z,17808
2017-04-25T07:00:58.581Z,19348
2017-04-25T07:01:58.959Z,20704
2017-04-25T07:02:59.624Z,20672
2017-04-25T07:04:00.007Z,19420
2017-04-25T07:05:00.526Z,18128
2017-04-25T07:06:01.047Z,17308
2017-04-25T07:07:01.563Z,17548
2017-04-25T07:08:02.212Z,18452
2017-04-25T07:09:02.621Z,19000
2017-04-25T07:10:03.107Z,18688
2017-04-25T07:11:03.629Z,18784
2017-04-25T07:12:04.296Z,19644
2017-04-25T07:13:04.662Z,20864
2017-04-25T07:14:05.218Z,21152
2017-04-25T07:15:05.840Z,21056
2017-04-25T07:16:06.363Z,20640
2017-04-25T07:17:06.867Z,19624
2017-04-25T07:18:07.240Z,18880
2017-04-25T07:19:07.769Z,20704
2017-04-25T07:20:08.298Z,20008
2017-04-25T07:21:08.807Z,19536
2017-04-25T07:22:09.316Z,20448
2017-04-25T07:23:09.988Z,20800
2017-04-25T07:24:10.353Z,22848
2017-04-25T07:25:11.017Z,24896
2017-04-25T07:26:11.529Z,25984
2017-04-25T07:27:11.921Z,27136
2017-04-25T07:28:12.438Z,27552
2017-04-25T07:29:12.957Z,26976
2017-04-25T07:30:13.517Z,24608
2017-04-25T07:31:13.994Z,25824
2017-04-25T07:32:14.523Z,27424
2017-04-25T07:33:15.183Z,26848
2017-04-25T07:34:15.574Z,23840
2017-04-25T07:35:16.074Z,21888
2017-04-25T07:36:16.598Z,21856
2017-04-25T07:37:17.258Z,21312
2017-04-25T07:38:17.773Z,19592
2017-04-25T07:39:18.290Z,18856
2017-04-25T07:40:18.809Z,19388
2017-04-25T07:41:19.178Z,22464
2017-04-25T07:42:19.712Z,25888
2017-04-25T07:43:20.361Z,29056
2017-04-25T07:44:20.736Z,29568
2017-04-25T07:45:21.402Z,28800
2017-04-25T07:46:21.788Z,28320
2017-04-25T07:47:22.436Z,24224
2017-04-25T07:48:22.807Z,19568
2017-04-25T07:49:23.334Z,16156
2017-04-25T07:50:23.841Z,13780
2017-04-25T07:51:24.361Z,12708
2017-04-25T07:52:24.890Z,12444
2017-04-25T07:53:25.547Z,12436
2017-04-25T07:54:25.911Z,11112
2017-04-25T07:55:26.481Z,9004
2017-04-25T07:56:27.099Z,7052
2017-04-25T07:57:27.626Z,5836
2017-04-25T07:58:28.008Z,5356
2017-04-25T07:59:28.655Z,5440
2017-04-25T08:00:29.021Z,4776
2017-04-25T08:01:29.551Z,4704
2017-04-25T08:02:30.210Z,4688
2017-04-25T08:03:30.725Z,4536
2017-04-25T08:04:31.093Z,4452
2017-04-25T08:05:31.621Z,4560
2017-04-25T08:06:32.131Z,4488
2017-04-25T08:07:32.668Z,4912
2017-04-25T08:08:33.177Z,5216
2017-04-25T08:09:33.713Z,5460
2017-04-25T08:10:34.362Z,5232
2017-04-25T08:11:34.739Z,4888
2017-04-25T08:12:35.399Z,4952
2017-04-25T08:13:35.919Z,5840
2017-04-25T08:14:36.290Z,7860
2017-04-25T08:15:36.801Z,9392
2017-04-25T08:16:37.467Z,11584
2017-04-25T08:17:37.853Z,14392
2017-04-25T08:18:38.506Z,16056
2017-04-25T08:19:39.031Z,17824
2017-04-25T08:20:39.394Z,17968
2017-04-25T08:21:39.917Z,17840
2017-04-25T08:22:40.438Z,18416
2017-04-25T08:23:41.104Z,20736
2017-04-25T08:24:41.468Z,22752
2017-04-25T08:25:42.002Z,23360
2017-04-25T08:26:42.520Z,21952
2017-04-25T08:27:43.026Z,19176
2017-04-25T08:28:45.341Z,18044
2017-04-25T08:29:44.202Z,17624
2017-04-25T08:30:44.733Z,17348
2017-04-25T08:31:45.102Z,16924
2017-04-25T08:32:45.764Z,16224
2017-04-25T08:33:46.136Z,15700
2017-04-25T08:34:46.806Z,14304
2017-04-25T08:35:47.235Z,13140
2017-04-25T08:36:47.713Z,12544
2017-04-25T08:37:48.220Z,11912
2017-04-25T08:38:48.729Z,12352
2017-04-25T08:39:49.387Z,14232
2017-04-25T08:40:49.761Z,17224
2017-04-25T08:41:50.289Z,19352
2017-04-25T08:42:50.820Z,23264
2017-04-25T08:43:51.466Z,28288
2017-04-25T08:44:51.983Z,31840
2017-04-25T08:45:52.645Z,34080
2017-04-25T08:46:52.869Z,35872
2017-04-25T08:47:53.399Z,36960
2017-04-25T08:48:53.933Z,37216
2017-04-25T08:49:54.441Z,42752
2017-04-25T08:50:54.989Z,52352
2017-04-25T08:51:55.621Z,55776
2017-04-25T08:52:55.998Z,56576
2017-04-25T08:53:56.524Z,57920
2017-04-25T08:54:57.051Z,59872
2017-04-25T08:55:57.696Z,62944
2017-04-25T08:56:58.211Z,66528
2017-04-25T08:57:58.738Z,70400
2017-04-25T08:58:59.104Z,70208
2017-04-25T08:59:59.646Z,77536
2017-04-25T09:01:00.285Z,73312
2017-04-25T09:02:00.661Z,69760
2017-04-25T09:03:01.322Z,75680
2017-04-25T09:04:01.704Z,74400
2017-04-25T09:05:02.215Z,75392
2017-04-25T09:06:02.746Z,102208
2017-04-25T09:07:03.270Z,81184
2017-04-25T09:08:03.792Z,93472
2017-04-25T09:09:04.304Z,93568
2017-04-25T09:10:04.803Z,76448
2017-04-25T09:11:05.468Z,76704
2017-04-25T09:12:05.988Z,76608
2017-04-25T09:13:06.377Z,82816
2017-04-25T09:14:06.877Z,85632
2017-04-25T09:15:07.398Z,77472
2017-04-25T09:16:07.921Z,76000
2017-04-25T09:17:08.461Z,74944
2017-04-25T09:18:09.104Z,72992
2017-04-25T09:19:09.620Z,70944
2017-04-25T09:20:10.133Z,69440
2017-04-25T09:21:10.504Z,68928
2017-04-25T09:22:11.036Z,70880
2017-04-25T09:23:11.539Z,72704
2017-04-25T09:24:12.066Z,72736
2017-04-25T09:25:12.616Z,70784
2017-04-25T09:26:13.243Z,69184
2017-04-25T09:27:13.759Z,68928
2017-04-25T09:28:14.289Z,73504
2017-04-25T09:29:14.806Z,91008
2017-04-25T09:30:15.329Z,73664
2017-04-25T09:31:15.702Z,70528
2017-04-25T09:32:16.367Z,71040
2017-04-25T09:33:16.736Z,68704
2017-04-25T09:34:17.269Z,71872
2017-04-25T09:35:17.922Z,70816
2017-04-25T09:36:18.441Z,72928
2017-04-25T09:37:18.818Z,74176
2017-04-25T09:38:19.327Z,75936
2017-04-25T09:39:19.847Z,71712
2017-04-25T09:40:20.376Z,60320
2017-04-25T09:41:21.030Z,66976
2017-04-25T09:42:21.546Z,170880
2017-04-25T09:43:21.914Z,124928
2017-04-25T09:44:22.440Z,91520
2017-04-25T09:45:23.099Z,61280
2017-04-25T09:46:23.475Z,67648
2017-04-25T09:47:24.133Z,91232
2017-04-25T09:48:24.658Z,118912
2017-04-25T09:49:25.185Z,70368
2017-04-25T09:50:25.547Z,134592
2017-04-25T09:51:26.061Z,129056
2017-04-25T09:52:26.745Z,128992
2017-04-25T09:53:27.104Z,135328
2017-04-25T09:54:27.626Z,132704
2017-04-25T09:55:28.140Z,121504
2017-04-25T09:56:28.666Z,130912
2017-04-25T09:57:29.171Z,128480
2017-04-25T09:58:29.695Z,121376
2017-04-25T09:59:30.202Z,119232
2017-04-25T10:00:30.734Z,130688
2017-04-25T10:01:31.243Z,117280
2017-04-25T10:02:31.768Z,141056
2017-04-25T10:03:32.275Z,147648
2017-04-25T10:04:32.937Z,126624
2017-04-25T10:05:33.457Z,137024
2017-04-25T10:06:33.840Z,141856
2017-04-25T10:07:34.351Z,140640
2017-04-25T10:08:34.874Z,141984
2017-04-25T10:09:35.387Z,147392
2017-04-25T10:10:36.063Z,65056
2017-04-25T10:11:36.426Z,120416
2017-04-25T10:12:36.960Z,136576
2017-04-25T10:13:37.471Z,63040
2017-04-25T10:14:37.990Z,51872
2017-04-25T10:15:38.508Z,51296
2017-04-25T10:16:39.030Z,44032
2017-04-25T10:17:39.695Z,39840
2017-04-25T10:18:40.081Z,37600
2017-04-25T10:19:40.733Z,28448
2017-04-25T10:20:41.114Z,26528
2017-04-25T10:21:41.629Z,29888
2017-04-25T10:22:42.144Z,119456
2017-04-25T10:23:42.801Z,70688
2017-04-25T10:24:43.189Z,46912
2017-04-25T10:25:43.710Z,45856
2017-04-25T10:26:44.208Z,37920
2017-04-25T10:27:44.735Z,31168
2017-04-25T10:28:45.250Z,29408
2017-04-25T10:29:45.773Z,28160
2017-04-25T10:30:46.297Z,28672
2017-04-25T10:31:46.799Z,30048
2017-04-25T10:32:47.319Z,129504
2017-04-25T10:33:47.977Z,132800
2017-04-25T10:34:48.359Z,133760
2017-04-25T10:35:48.869Z,135584
2017-04-25T10:36:49.395Z,135808
2017-04-25T10:37:50.055Z,128896
2017-04-25T10:38:50.417Z,131168
2017-04-25T10:39:50.952Z,134144
2017-04-25T10:40:51.473Z,134592
2017-04-25T10:41:51.994Z,140480
2017-04-25T10:42:52.647Z,148224
2017-04-25T10:43:53.159Z,149920
2017-04-25T10:44:53.545Z,78624
2017-04-25T10:45:54.067Z,152736
2017-04-25T10:46:54.582Z,150976
2017-04-25T10:47:55.096Z,80416
2017-04-25T10:48:55.613Z,68608
2017-04-25T10:49:56.133Z,157824
2017-04-25T10:50:56.653Z,141248
2017-04-25T10:51:57.178Z,153792
2017-04-25T10:52:57.689Z,111360
2017-04-25T10:53:58.345Z,56352
2017-04-25T10:54:58.758Z,95200
2017-04-25T10:56:00.740Z,54272
2017-04-25T10:58:00.320Z,154368
2017-04-25T10:59:00.811Z,153504
2017-04-25T11:00:01.318Z,119072
2017-04-25T11:01:01.843Z,70496
2017-04-25T11:02:02.503Z,151328
2017-04-25T11:03:02.880Z,158464
2017-04-25T11:04:03.398Z,58080
2017-04-25T11:05:04.064Z,56576
2017-04-25T11:06:04.435Z,154080
2017-04-25T11:07:04.947Z,39008
2017-04-25T11:08:05.605Z,36864
2017-04-25T11:09:06.132Z,43488
2017-04-25T11:10:06.643Z,56000
2017-04-25T11:11:07.051Z,102336
2017-04-25T11:12:07.539Z,155840
2017-04-25T11:13:08.087Z,118272
2017-04-25T11:14:08.577Z,157792
2017-04-25T11:15:09.085Z,162080
2017-04-25T11:16:09.752Z,58848
2017-04-25T11:17:10.123Z,58592
2017-04-25T11:18:10.646Z,53312
2017-04-25T11:19:11.316Z,50240
2017-04-25T11:20:11.684Z,48288
2017-04-25T11:21:12.208Z,51904
2017-04-25T11:22:12.717Z,57024
2017-04-25T11:23:13.233Z,166720
2017-04-25T11:24:13.897Z,142528
2017-04-25T11:25:14.281Z,72992
2017-04-25T11:26:14.810Z,63872
2017-04-25T11:27:15.317Z,76512
2017-04-25T11:28:15.970Z,74912
2017-04-25T11:29:16.346Z,65152
2017-04-25T11:30:16.901Z,64800
2017-04-25T11:31:17.385Z,65440
2017-04-25T11:32:17.896Z,128064
2017-04-25T11:33:18.428Z,84928
2017-04-25T11:34:18.939Z,71648
2017-04-25T11:35:19.467Z,67904
2017-04-25T11:36:20.122Z,170176
2017-04-25T11:37:20.505Z,87712
2017-04-25T11:38:21.023Z,61024
2017-04-25T11:39:21.681Z,55072
2017-04-25T11:40:22.066Z,49408
2017-04-25T11:41:22.584Z,129952
2017-04-25T11:42:23.234Z,148000
2017-04-25T11:43:23.623Z,145440
2017-04-25T11:44:24.274Z,145856
2017-04-25T11:45:24.797Z,62496
2017-04-25T11:46:25.160Z,145792
2017-04-25T11:47:25.678Z,162912
2017-04-25T11:48:26.345Z,80320
2017-04-25T11:49:26.723Z,127648
2017-04-25T11:50:27.238Z,64928
2017-04-25T11:51:27.765Z,50688
2017-04-25T11:52:28.280Z,47872
2017-04-25T11:54:29.452Z,38688
2017-04-25T11:55:29.844Z,36160
2017-04-25T11:56:30.366Z,35904
2017-04-25T11:57:30.878Z,36896
2017-04-25T11:58:31.382Z,43072
2017-04-25T11:59:31.910Z,102528
2017-04-25T12:00:32.570Z,152928
2017-04-25T12:01:32.983Z,147680
2017-04-25T12:02:33.459Z,146784
2017-04-25T12:03:34.126Z,115104
2017-04-25T12:04:34.499Z,63200
2017-04-25T12:05:35.011Z,41728
2017-04-25T12:06:35.554Z,148128
2017-04-25T12:07:36.067Z,141600
2017-04-25T12:08:36.718Z,138528
2017-04-25T12:09:37.107Z,148608
2017-04-25T12:10:37.609Z,152320
2017-04-25T12:11:38.138Z,154752
2017-04-25T12:12:38.648Z,159936
2017-04-25T12:13:39.175Z,164128
2017-04-25T12:14:39.828Z,167872
2017-04-25T12:15:40.357Z,168064
2017-04-25T12:16:40.740Z,162816
2017-04-25T12:17:41.399Z,69184
2017-04-25T12:18:41.912Z,97696
2017-04-25T12:19:42.325Z,161792
2017-04-25T12:20:42.944Z,166816
2017-04-25T12:21:43.329Z,67648
2017-04-25T12:22:43.987Z,54688
2017-04-25T12:23:44.526Z,162688
2017-04-25T12:24:44.894Z,153984
2017-04-25T12:25:45.398Z,149248
2017-04-25T12:26:46.055Z,145024
2017-04-25T12:27:46.474Z,146112
2017-04-25T12:28:47.096Z,144256
2017-04-25T12:29:47.613Z,123264
2017-04-25T12:30:48.132Z,38624
2017-04-25T12:31:48.650Z,41056
2017-04-25T12:32:49.173Z,41248
2017-04-25T12:33:49.583Z,42752
2017-04-25T12:34:50.072Z,36416
2017-04-25T12:35:50.724Z,39648
2017-04-25T12:36:51.101Z,35936
2017-04-25T12:37:51.623Z,136000
2017-04-25T12:38:52.146Z,140992
2017-04-25T12:39:52.652Z,140960
2017-04-25T12:40:53.315Z,140736
2017-04-25T12:41:53.831Z,142432
2017-04-25T12:42:54.351Z,148992
2017-04-25T12:43:54.870Z,152096
2017-04-25T12:44:55.255Z,135552
2017-04-25T12:45:55.906Z,154752
2017-04-25T12:46:56.424Z,132352
2017-04-25T12:47:56.800Z,160192
2017-04-25T12:48:57.458Z,115744
2017-04-25T12:49:57.843Z,58368
2017-04-25T12:50:58.364Z,97376
2017-04-25T12:51:58.888Z,168256
2017-04-25T12:52:59.534Z,153600
2017-04-25T12:53:59.919Z,147424
2017-04-25T12:55:00.570Z,50176
2017-04-25T12:56:00.947Z,112032
2017-04-25T12:57:01.492Z,48256
2017-04-25T12:58:01.990Z,43488
2017-04-25T12:59:02.512Z,38144
2017-04-25T13:00:03.179Z,33376
2017-04-25T13:01:03.549Z,30368
2017-04-25T13:02:04.212Z,30368
2017-04-25T13:03:04.732Z,32832
2017-04-25T13:04:05.112Z,37344
2017-04-25T13:05:05.778Z,42048
2017-04-25T13:06:06.147Z,44576
2017-04-25T13:07:06.689Z,47104
2017-04-25T13:08:07.324Z,52544
2017-04-25T13:09:07.706Z,153472
2017-04-25T13:10:08.358Z,78208
2017-04-25T13:11:08.729Z,69120
2017-04-25T13:12:09.393Z,104416
2017-04-25T13:13:09.774Z,118400
2017-04-25T13:14:10.450Z,107840
2017-04-25T13:15:10.951Z,107968
2017-04-25T13:16:11.469Z,117120
2017-04-25T13:17:11.879Z,38112
2017-04-25T13:18:12.505Z,122592
2017-04-25T13:19:13.024Z,120576
2017-04-25T13:20:13.401Z,30528
2017-04-25T13:21:13.930Z,57568
2017-04-25T13:22:14.438Z,47104
2017-04-25T13:23:15.099Z,41600
2017-04-25T13:24:15.471Z,134112
2017-04-25T13:25:16.132Z,137024
2017-04-25T13:26:16.518Z,132000
2017-04-25T13:27:17.033Z,34848
2017-04-25T13:28:17.553Z,41024
2017-04-25T13:29:18.200Z,36384
2017-04-25T13:30:18.597Z,35072
2017-04-25T13:31:19.245Z,128800
2017-04-25T13:32:19.612Z,121984
2017-04-25T13:33:20.134Z,127456
2017-04-25T13:34:20.656Z,118624
2017-04-25T13:35:21.320Z,35136
2017-04-25T13:36:21.692Z,37760
2017-04-25T13:37:22.214Z,38464
2017-04-25T13:38:22.762Z,32800
2017-04-25T13:39:23.270Z,26784
2017-04-25T13:40:23.777Z,23424
2017-04-25T13:41:24.295Z,20992
2017-04-25T13:42:24.821Z,18976